Langara, Canada
Current Conditions -  °F | °C
As of 6:56 AM on Monday 22 Dec 2014 (Local Time) from PAHY Reporting Station
Broken Clouds Broken Clouds  
Wind Chill:   Ceiling: 3400
Heat Index:   Visibility: 10mi
Dew Point:   Wind: 0mph
Humidity: 76%   Direction: NA
Pressure: 30.1"   Gusts: NA
Location:  54.23°N, 133°W
Report Text: PAHY 221456Z AUTO 00000KT 10SM SCT025 BKN034 BKN040 05/01 A3010 RMK AO1 52034
Loading
Personal Weather Stations






























Interactive Weather Map New forecast layout! Learn more

10-Day Weather Forecast

Advertisements
Track Severe Weather on mobile